Startpagina
METAR-TAF:

METAR-TAF

Vliegvelden :

Vliegbasis Chièvres

Chièvres, België

breedte: 50-34N, lengte: 003-50E, hoogte: 60 m

Actueel weer

Dit bericht is 44 minuten geleden gemaakt, om 14:25 UTC
Wind 7 kt uit het zuidzuidoosten
Temperatuur 13°C
Vochtigheid 67%
Druk 1026 hPa
Zicht 10 km of meer

METAR: EBCV 141425Z AUTO 16007KT 9999 NCD 13/07 Q1026 BLU

Tijdstip: 16:09 (15:09 UTC)

Verwachting

Dit bericht is 3 uur en het 28 minuten geleden gemaakt, om 11:41 UTC
Verwachting geldig van 14 om 13 UTC tot 14 om 22 UTC
Wind 8 kt uit het zuiden
Zicht 10 km of meer

TAF: EBCV 141141Z 1413/1422 17008KT 9999 NSC BY EBWM

Waarnemingen en weersverwachtingen van meer dan 4000 vliegvelden (METAR en TAF).

De beschikbare stations zijn de gele en rode punten op de kaart.

Ga met uw muis naar het station om de naam te zien.

Klik dan om waarnemingen en weersverwachtingen te zien.

kaart wijzigen: klik op de groene knoppen met een zwart kruis om in te zoomen, op de groene knop met een streepje om uit te zoomen of op de groene pijlen voor aangrenzende kaarten.


METAR-TAF: